الصفحة الرئيسية
METAR-TAF:

METAR-TAF

مطار :

Saint-Pierre, ريونيون

دائرة عرض: 21-20S, خط طول: 055-29E, ارتفاع: 52 متر

مراقبة الطقس الحالي

تاريخ ووقت الإصدار 38 دقيقة قبل الساعة 10:30UTC
ريح 9 عقدةمن اتجاهات متغيرة تتزايد حتى 19 عقدة
درجة الحرارة 30°درجة مئوية
الرطوبة 52%
ضغط 1014 hPa
الرؤية 10 كم أو أكثر
غيوم قليلة على ارتفاع 5200 قدم

METAR: FMEP 251030Z AUTO VRB09G19KT 9999 FEW052 30/19 Q1014 BECMG 13015KT

زمن: 15:08 (11:08 UTC)

توقعات

تاريخ ووقت الإصدار 3ساعات و 8 دقيقة قبل الساعة 08:00UTC
التوقعات صالحة من25 الساعة 09 UTC إلى 25 الساعة 18 UTC
ريح 15 عقدة من الجنوب الشرقي
الرؤية 10 كم أو أكثر
غيوم قليلة على ارتفاع 3000 قدم
مؤقت
من 25 الساعة 15 UTC إلى 25 الساعة 18 UTC
الرؤية: 3000 متر
غيوم مفككة على ارتفاع 1500 قدم
زخات من المطر

TAF: FMEP 250800Z 2509/2518 13015KT 9999 FEW030 TEMPO 2515/2518 3000 SHRA BKN015

أرصاد الطقس والتوقعات من أكثر من 4000 مطار (تقارير الطقس للمطار METAR والتنبؤ بالطقس بالمطارTAF).

المحطات المتاحة هي النقط الصفراء والحمراء على الخريطة.

حرك المؤشر فوق النقطة لمعرفة اسم المحطة.

ثم انقر لمعرفة أرصاد وتوقعات الطقس.

لتغيير الخارطة: اضغط على الأزرار الخضراء مع رمز الصليب الأسود للتكبير. على الزر الأخضر مع شرطة للتصغير، أو على الأسهم الخضراء للخرائط المجاورة.


METAR-TAF: